sensor_id;sensor_type;location;lat;lon;timestamp;temperature;humidity
56374;DHT22;58212;47.034;7.376;2022-11-20T00:00:19;5.50;99.90
56374;DHT22;58212;47.034;7.376;2022-11-20T00:02:46;5.40;99.90
56374;DHT22;58212;47.034;7.376;2022-11-20T00:05:13;5.30;99.90
56374;DHT22;58212;47.034;7.376;2022-11-20T00:07:42;5.40;99.90
56374;DHT22;58212;47.034;7.376;2022-11-20T00:10:09;5.40;99.90
56374;DHT22;58212;47.034;7.376;2022-11-20T00:12:36;5.30;99.90
56374;DHT22;58212;47.034;7.376;2022-11-20T00:15:04;5.20;99.90
56374;DHT22;58212;47.034;7.376;2022-11-20T00:17:31;5.20;99.90
56374;DHT22;58212;47.034;7.376;2022-11-20T00:19:58;5.10;99.90
56374;DHT22;58212;47.034;7.376;2022-11-20T00:22:26;5.20;99.90
56374;DHT22;58212;47.034;7.376;2022-11-20T00:24:54;5.20;99.90
56374;DHT22;58212;47.034;7.376;2022-11-20T00:27:22;5.10;99.90
56374;DHT22;58212;47.034;7.376;2022-11-20T00:29:49;5.20;99.90
56374;DHT22;58212;47.034;7.376;2022-11-20T00:32:16;5.20;99.90
56374;DHT22;58212;47.034;7.376;2022-11-20T00:34:45;5.30;99.90
56374;DHT22;58212;47.034;7.376;2022-11-20T00:37:12;5.40;99.90
56374;DHT22;58212;47.034;7.376;2022-11-20T00:39:41;5.40;99.90
56374;DHT22;58212;47.034;7.376;2022-11-20T00:42:12;5.40;99.90
56374;DHT22;58212;47.034;7.376;2022-11-20T00:44:40;5.40;99.90
56374;DHT22;58212;47.034;7.376;2022-11-20T00:47:09;5.40;99.90
56374;DHT22;58212;47.034;7.376;2022-11-20T00:49:36;5.30;99.90
56374;DHT22;58212;47.034;7.376;2022-11-20T00:52:04;5.40;99.90
56374;DHT22;58212;47.034;7.376;2022-11-20T00:54:33;5.30;99.90
56374;DHT22;58212;47.034;7.376;2022-11-20T00:57:01;5.40;99.90
56374;DHT22;58212;47.034;7.376;2022-11-20T00:59:29;5.40;99.90
56374;DHT22;58212;47.034;7.376;2022-11-20T01:01:58;5.50;99.90
56374;DHT22;58212;47.034;7.376;2022-11-20T01:04:25;5.60;99.90
56374;DHT22;58212;47.034;7.376;2022-11-20T01:06:52;5.60;99.90
56374;DHT22;58212;47.034;7.376;2022-11-20T01:09:19;5.70;99.90
56374;DHT22;58212;47.034;7.376;2022-11-20T01:11:46;5.80;99.90
56374;DHT22;58212;47.034;7.376;2022-11-20T01:14:15;5.80;99.90
56374;DHT22;58212;47.034;7.376;2022-11-20T01:16:45;5.70;99.90
56374;DHT22;58212;47.034;7.376;2022-11-20T01:19:14;5.70;99.90
56374;DHT22;58212;47.034;7.376;2022-11-20T01:21:43;5.60;99.90
56374;DHT22;58212;47.034;7.376;2022-11-20T01:24:12;5.70;99.90
56374;DHT22;58212;47.034;7.376;2022-11-20T01:26:41;5.70;99.90
56374;DHT22;58212;47.034;7.376;2022-11-20T01:29:13;5.80;99.90
56374;DHT22;58212;47.034;7.376;2022-11-20T01:31:41;5.80;99.90
56374;DHT22;58212;47.034;7.376;2022-11-20T01:34:12;5.80;99.90
56374;DHT22;58212;47.034;7.376;2022-11-20T01:36:41;5.80;99.90
56374;DHT22;58212;47.034;7.376;2022-11-20T01:39:11;5.80;99.90
56374;DHT22;58212;47.034;7.376;2022-11-20T01:41:41;5.90;99.90
56374;DHT22;58212;47.034;7.376;2022-11-20T01:44:51;5.90;99.90
56374;DHT22;58212;47.034;7.376;2022-11-20T01:47:23;6.00;99.90
56374;DHT22;58212;47.034;7.376;2022-11-20T01:49:56;6.00;99.90
56374;DHT22;58212;47.034;7.376;2022-11-20T01:52:29;6.00;99.90
56374;DHT22;58212;47.034;7.376;2022-11-20T01:55:03;6.00;99.90
56374;DHT22;58212;47.034;7.376;2022-11-20T01:57:31;6.00;99.90
56374;DHT22;58212;47.034;7.376;2022-11-20T02:00:05;6.00;99.90
56374;DHT22;58212;47.034;7.376;2022-11-20T02:02:39;6.00;99.90
56374;DHT22;58212;47.034;7.376;2022-11-20T02:05:16;6.00;99.90
56374;DHT22;58212;47.034;7.376;2022-11-20T02:07:44;6.10;99.90
56374;DHT22;58212;47.034;7.376;2022-11-20T02:10:13;6.10;99.90
56374;DHT22;58212;47.034;7.376;2022-11-20T02:12:40;6.00;99.90
56374;DHT22;58212;47.034;7.376;2022-11-20T02:15:25;6.10;99.90
56374;DHT22;58212;47.034;7.376;2022-11-20T02:17:52;6.00;99.90
56374;DHT22;58212;47.034;7.376;2022-11-20T02:20:22;5.90;99.90
56374;DHT22;58212;47.034;7.376;2022-11-20T02:22:54;6.00;99.90
56374;DHT22;58212;47.034;7.376;2022-11-20T02:25:27;6.10;99.90
56374;DHT22;58212;47.034;7.376;2022-11-20T02:27:58;6.20;99.90
56374;DHT22;58212;47.034;7.376;2022-11-20T02:30:25;6.20;99.90
56374;DHT22;58212;47.034;7.376;2022-11-20T02:32:53;6.10;99.90
56374;DHT22;58212;47.034;7.376;2022-11-20T02:35:41;6.10;99.90
56374;DHT22;58212;47.034;7.376;2022-11-20T02:38:08;6.10;99.90
56374;DHT22;58212;47.034;7.376;2022-11-20T02:40:36;6.00;99.90
56374;DHT22;58212;47.034;7.376;2022-11-20T02:43:03;6.10;99.90
56374;DHT22;58212;47.034;7.376;2022-11-20T02:45:30;6.30;99.90
56374;DHT22;58212;47.034;7.376;2022-11-20T02:47:58;6.20;99.90
56374;DHT22;58212;47.034;7.376;2022-11-20T02:50:25;6.10;99.90
56374;DHT22;58212;47.034;7.376;2022-11-20T02:52:52;6.10;99.90
56374;DHT22;58212;47.034;7.376;2022-11-20T02:55:19;6.10;99.90
56374;DHT22;58212;47.034;7.376;2022-11-20T02:57:48;6.10;99.90
56374;DHT22;58212;47.034;7.376;2022-11-20T03:00:15;5.90;99.90
56374;DHT22;58212;47.034;7.376;2022-11-20T03:02:42;5.90;99.90
56374;DHT22;58212;47.034;7.376;2022-11-20T03:05:10;5.90;99.90
56374;DHT22;58212;47.034;7.376;2022-11-20T03:07:39;6.00;99.90
56374;DHT22;58212;47.034;7.376;2022-11-20T03:10:09;6.10;99.90
56374;DHT22;58212;47.034;7.376;2022-11-20T03:12:36;6.10;99.90
56374;DHT22;58212;47.034;7.376;2022-11-20T03:15:05;6.20;99.90
56374;DHT22;58212;47.034;7.376;2022-11-20T03:17:32;6.20;99.90
56374;DHT22;58212;47.034;7.376;2022-11-20T03:20:00;6.20;99.90
56374;DHT22;58212;47.034;7.376;2022-11-20T03:22:29;6.20;99.90
56374;DHT22;58212;47.034;7.376;2022-11-20T03:24:56;6.30;99.90
56374;DHT22;58212;47.034;7.376;2022-11-20T03:27:23;6.20;99.90
56374;DHT22;58212;47.034;7.376;2022-11-20T03:29:50;6.20;99.90
56374;DHT22;58212;47.034;7.376;2022-11-20T03:32:18;6.30;99.90
56374;DHT22;58212;47.034;7.376;2022-11-20T03:34:46;6.20;99.90
56374;DHT22;58212;47.034;7.376;2022-11-20T03:37:12;6.10;99.90
56374;DHT22;58212;47.034;7.376;2022-11-20T03:39:39;6.10;99.90
56374;DHT22;58212;47.034;7.376;2022-11-20T03:42:07;6.10;99.90
56374;DHT22;58212;47.034;7.376;2022-11-20T03:44:54;6.20;99.90
56374;DHT22;58212;47.034;7.376;2022-11-20T03:47:23;6.40;99.90
56374;DHT22;58212;47.034;7.376;2022-11-20T03:49:50;6.40;99.90
56374;DHT22;58212;47.034;7.376;2022-11-20T03:52:17;6.20;99.90
56374;DHT22;58212;47.034;7.376;2022-11-20T03:54:45;6.20;99.90
56374;DHT22;58212;47.034;7.376;2022-11-20T03:57:12;6.30;99.90
56374;DHT22;58212;47.034;7.376;2022-11-20T03:59:39;6.20;99.90
56374;DHT22;58212;47.034;7.376;2022-11-20T04:02:06;6.20;99.90
56374;DHT22;58212;47.034;7.376;2022-11-20T04:04:34;6.30;99.90
56374;DHT22;58212;47.034;7.376;2022-11-20T04:07:02;6.30;99.90
56374;DHT22;58212;47.034;7.376;2022-11-20T04:09:29;6.30;99.90
56374;DHT22;58212;47.034;7.376;2022-11-20T04:11:56;6.30;99.90
56374;DHT22;58212;47.034;7.376;2022-11-20T04:14:23;6.30;99.90
56374;DHT22;58212;47.034;7.376;2022-11-20T04:16:50;6.40;99.90
56374;DHT22;58212;47.034;7.376;2022-11-20T04:19:17;6.50;99.90
56374;DHT22;58212;47.034;7.376;2022-11-20T04:21:46;6.50;99.90
56374;DHT22;58212;47.034;7.376;2022-11-20T04:24:13;6.50;99.90
56374;DHT22;58212;47.034;7.376;2022-11-20T04:26:41;6.40;99.90
56374;DHT22;58212;47.034;7.376;2022-11-20T04:29:11;6.30;99.90
56374;DHT22;58212;47.034;7.376;2022-11-20T04:31:38;6.30;99.90
56374;DHT22;58212;47.034;7.376;2022-11-20T04:34:06;6.40;99.90
56374;DHT22;58212;47.034;7.376;2022-11-20T04:36:34;6.30;99.90
56374;DHT22;58212;47.034;7.376;2022-11-20T04:39:06;6.30;99.90
56374;DHT22;58212;47.034;7.376;2022-11-20T04:41:36;6.30;99.90
56374;DHT22;58212;47.034;7.376;2022-11-20T04:44:05;6.30;99.90
56374;DHT22;58212;47.034;7.376;2022-11-20T04:46:34;6.30;99.90
56374;DHT22;58212;47.034;7.376;2022-11-20T04:49:02;6.30;99.90
56374;DHT22;58212;47.034;7.376;2022-11-20T04:51:29;6.40;99.90
56374;DHT22;58212;47.034;7.376;2022-11-20T04:53:56;6.30;99.90
56374;DHT22;58212;47.034;7.376;2022-11-20T04:56:24;6.30;99.90
56374;DHT22;58212;47.034;7.376;2022-11-20T04:58:52;6.30;99.90
56374;DHT22;58212;47.034;7.376;2022-11-20T05:01:21;6.40;99.90
56374;DHT22;58212;47.034;7.376;2022-11-20T05:03:49;6.40;99.90
56374;DHT22;58212;47.034;7.376;2022-11-20T05:06:18;6.40;99.90
56374;DHT22;58212;47.034;7.376;2022-11-20T05:08:45;6.40;99.90
56374;DHT22;58212;47.034;7.376;2022-11-20T05:11:14;6.40;99.90
56374;DHT22;58212;47.034;7.376;2022-11-20T05:13:43;6.50;99.90
56374;DHT22;58212;47.034;7.376;2022-11-20T05:16:11;6.60;99.90
56374;DHT22;58212;47.034;7.376;2022-11-20T05:18:41;6.60;99.90
56374;DHT22;58212;47.034;7.376;2022-11-20T05:21:10;6.60;99.90
56374;DHT22;58212;47.034;7.376;2022-11-20T05:23:37;6.60;99.90
56374;DHT22;58212;47.034;7.376;2022-11-20T05:26:06;6.50;99.90
56374;DHT22;58212;47.034;7.376;2022-11-20T05:28:33;6.40;99.90
56374;DHT22;58212;47.034;7.376;2022-11-20T05:31:06;6.40;99.90
56374;DHT22;58212;47.034;7.376;2022-11-20T05:33:33;6.30;99.90
56374;DHT22;58212;47.034;7.376;2022-11-20T05:36:01;6.40;99.90
56374;DHT22;58212;47.034;7.376;2022-11-20T05:38:28;6.50;99.90
56374;DHT22;58212;47.034;7.376;2022-11-20T05:41:03;6.50;99.90
56374;DHT22;58212;47.034;7.376;2022-11-20T05:43:32;6.50;99.90
56374;DHT22;58212;47.034;7.376;2022-11-20T05:45:59;6.60;99.90
56374;DHT22;58212;47.034;7.376;2022-11-20T05:48:27;6.60;99.90
56374;DHT22;58212;47.034;7.376;2022-11-20T05:50:56;6.60;99.90
56374;DHT22;58212;47.034;7.376;2022-11-20T05:53:23;6.50;99.90
56374;DHT22;58212;47.034;7.376;2022-11-20T05:55:59;6.50;99.90
56374;DHT22;58212;47.034;7.376;2022-11-20T05:58:27;6.60;99.90
56374;DHT22;58212;47.034;7.376;2022-11-20T06:00:54;6.60;99.90
56374;DHT22;58212;47.034;7.376;2022-11-20T06:03:21;6.60;99.90
56374;DHT22;58212;47.034;7.376;2022-11-20T06:05:50;6.50;99.90
56374;DHT22;58212;47.034;7.376;2022-11-20T06:08:17;6.50;99.90
56374;DHT22;58212;47.034;7.376;2022-11-20T06:10:44;6.50;99.90
56374;DHT22;58212;47.034;7.376;2022-11-20T06:13:11;6.50;99.90
56374;DHT22;58212;47.034;7.376;2022-11-20T06:15:38;6.50;99.90
56374;DHT22;58212;47.034;7.376;2022-11-20T06:18:09;6.50;99.90
56374;DHT22;58212;47.034;7.376;2022-11-20T06:20:36;6.60;99.90
56374;DHT22;58212;47.034;7.376;2022-11-20T06:23:05;6.50;99.90
56374;DHT22;58212;47.034;7.376;2022-11-20T06:25:32;6.50;99.90
56374;DHT22;58212;47.034;7.376;2022-11-20T06:27:59;6.40;99.90
56374;DHT22;58212;47.034;7.376;2022-11-20T06:30:26;6.40;99.90
56374;DHT22;58212;47.034;7.376;2022-11-20T06:32:53;6.30;99.90
56374;DHT22;58212;47.034;7.376;2022-11-20T06:35:20;6.30;99.90
56374;DHT22;58212;47.034;7.376;2022-11-20T06:37:47;6.30;99.90
56374;DHT22;58212;47.034;7.376;2022-11-20T06:40:15;6.30;99.90
56374;DHT22;58212;47.034;7.376;2022-11-20T06:42:42;6.10;99.90
56374;DHT22;58212;47.034;7.376;2022-11-20T06:45:10;6.20;99.90
56374;DHT22;58212;47.034;7.376;2022-11-20T06:47:37;6.30;99.90
56374;DHT22;58212;47.034;7.376;2022-11-20T06:50:05;6.30;99.90
56374;DHT22;58212;47.034;7.376;2022-11-20T06:52:33;6.30;99.90
56374;DHT22;58212;47.034;7.376;2022-11-20T06:55:00;6.30;99.90
56374;DHT22;58212;47.034;7.376;2022-11-20T06:57:28;6.30;99.90
56374;DHT22;58212;47.034;7.376;2022-11-20T06:59:58;6.40;99.90
56374;DHT22;58212;47.034;7.376;2022-11-20T07:02:25;6.30;99.90
56374;DHT22;58212;47.034;7.376;2022-11-20T07:04:52;6.40;99.90
56374;DHT22;58212;47.034;7.376;2022-11-20T07:07:19;6.60;99.90
56374;DHT22;58212;47.034;7.376;2022-11-20T07:09:46;6.60;99.90
56374;DHT22;58212;47.034;7.376;2022-11-20T07:12:13;6.60;99.90
56374;DHT22;58212;47.034;7.376;2022-11-20T07:14:41;6.60;99.90
56374;DHT22;58212;47.034;7.376;2022-11-20T07:17:08;6.70;99.90
56374;DHT22;58212;47.034;7.376;2022-11-20T07:19:35;6.70;99.90
56374;DHT22;58212;47.034;7.376;2022-11-20T07:22:02;6.70;99.90
56374;DHT22;58212;47.034;7.376;2022-11-20T07:24:29;6.60;99.90
56374;DHT22;58212;47.034;7.376;2022-11-20T07:26:56;6.50;99.90
56374;DHT22;58212;47.034;7.376;2022-11-20T07:29:23;6.60;99.90
56374;DHT22;58212;47.034;7.376;2022-11-20T07:31:53;6.50;99.90
56374;DHT22;58212;47.034;7.376;2022-11-20T07:34:21;6.70;99.90
56374;DHT22;58212;47.034;7.376;2022-11-20T07:36:50;6.70;99.90
56374;DHT22;58212;47.034;7.376;2022-11-20T07:39:17;6.70;99.90
56374;DHT22;58212;47.034;7.376;2022-11-20T07:41:45;6.80;99.90
56374;DHT22;58212;47.034;7.376;2022-11-20T07:44:12;6.80;99.90
56374;DHT22;58212;47.034;7.376;2022-11-20T07:46:40;6.80;99.90
56374;DHT22;58212;47.034;7.376;2022-11-20T07:49:11;6.70;99.90
56374;DHT22;58212;47.034;7.376;2022-11-20T07:51:38;6.70;99.90
56374;DHT22;58212;47.034;7.376;2022-11-20T07:54:05;6.80;99.90
56374;DHT22;58212;47.034;7.376;2022-11-20T07:56:32;6.90;99.90
56374;DHT22;58212;47.034;7.376;2022-11-20T07:58:59;7.00;99.90
56374;DHT22;58212;47.034;7.376;2022-11-20T08:01:26;6.80;99.90
56374;DHT22;58212;47.034;7.376;2022-11-20T08:03:54;6.80;99.90
56374;DHT22;58212;47.034;7.376;2022-11-20T08:06:22;6.90;99.90
56374;DHT22;58212;47.034;7.376;2022-11-20T08:08:50;6.90;99.90
56374;DHT22;58212;47.034;7.376;2022-11-20T08:11:17;6.90;99.90
56374;DHT22;58212;47.034;7.376;2022-11-20T08:14:02;6.90;99.90
56374;DHT22;58212;47.034;7.376;2022-11-20T08:16:39;7.10;99.90
56374;DHT22;58212;47.034;7.376;2022-11-20T08:19:06;7.00;99.90
56374;DHT22;58212;47.034;7.376;2022-11-20T08:21:35;7.10;99.90
56374;DHT22;58212;47.034;7.376;2022-11-20T08:24:03;7.20;99.90
56374;DHT22;58212;47.034;7.376;2022-11-20T08:26:30;7.40;99.90
56374;DHT22;58212;47.034;7.376;2022-11-20T08:28:58;7.30;99.90
56374;DHT22;58212;47.034;7.376;2022-11-20T08:31:26;7.40;99.90
56374;DHT22;58212;47.034;7.376;2022-11-20T08:33:53;7.50;99.90
56374;DHT22;58212;47.034;7.376;2022-11-20T08:36:21;7.40;99.90
56374;DHT22;58212;47.034;7.376;2022-11-20T08:38:54;7.20;99.90
56374;DHT22;58212;47.034;7.376;2022-11-20T08:41:22;7.20;99.90
56374;DHT22;58212;47.034;7.376;2022-11-20T08:43:55;7.20;99.90
56374;DHT22;58212;47.034;7.376;2022-11-20T08:46:23;7.10;99.90
56374;DHT22;58212;47.034;7.376;2022-11-20T08:48:50;7.20;99.90
56374;DHT22;58212;47.034;7.376;2022-11-20T08:51:18;7.40;99.90
56374;DHT22;58212;47.034;7.376;2022-11-20T08:53:46;7.50;99.90
56374;DHT22;58212;47.034;7.376;2022-11-20T08:56:17;7.50;99.90
56374;DHT22;58212;47.034;7.376;2022-11-20T08:58:44;7.60;99.90
56374;DHT22;58212;47.034;7.376;2022-11-20T09:01:11;7.60;99.90
56374;DHT22;58212;47.034;7.376;2022-11-20T09:03:38;7.60;99.90
56374;DHT22;58212;47.034;7.376;2022-11-20T09:06:06;7.60;99.90
56374;DHT22;58212;47.034;7.376;2022-11-20T09:08:34;7.80;99.90
56374;DHT22;58212;47.034;7.376;2022-11-20T09:11:04;8.10;99.90
56374;DHT22;58212;47.034;7.376;2022-11-20T09:13:33;8.30;99.90
56374;DHT22;58212;47.034;7.376;2022-11-20T09:16:02;8.30;99.90
56374;DHT22;58212;47.034;7.376;2022-11-20T09:18:30;8.70;99.90
56374;DHT22;58212;47.034;7.376;2022-11-20T09:20:58;8.80;99.90
56374;DHT22;58212;47.034;7.376;2022-11-20T09:23:27;9.00;99.90
56374;DHT22;58212;47.034;7.376;2022-11-20T09:25:55;9.20;99.90
56374;DHT22;58212;47.034;7.376;2022-11-20T09:28:27;9.40;99.90
56374;DHT22;58212;47.034;7.376;2022-11-20T09:30:56;9.60;99.90
56374;DHT22;58212;47.034;7.376;2022-11-20T09:33:23;9.60;99.90
56374;DHT22;58212;47.034;7.376;2022-11-20T09:35:50;9.60;99.90
56374;DHT22;58212;47.034;7.376;2022-11-20T09:38:17;9.60;99.90
56374;DHT22;58212;47.034;7.376;2022-11-20T09:40:49;9.40;99.90
56374;DHT22;58212;47.034;7.376;2022-11-20T09:43:27;9.40;99.90
56374;DHT22;58212;47.034;7.376;2022-11-20T09:46:04;9.30;99.90
56374;DHT22;58212;47.034;7.376;2022-11-20T09:48:48;9.70;99.90
56374;DHT22;58212;47.034;7.376;2022-11-20T09:51:26;9.60;99.90
56374;DHT22;58212;47.034;7.376;2022-11-20T09:54:05;9.60;99.90
56374;DHT22;58212;47.034;7.376;2022-11-20T09:56:37;9.50;99.90
56374;DHT22;58212;47.034;7.376;2022-11-20T09:59:07;9.20;99.90
56374;DHT22;58212;47.034;7.376;2022-11-20T10:01:40;9.30;99.90
56374;DHT22;58212;47.034;7.376;2022-11-20T10:04:12;9.40;99.90
56374;DHT22;58212;47.034;7.376;2022-11-20T10:06:47;9.10;99.90
56374;DHT22;58212;47.034;7.376;2022-11-20T10:09:22;8.90;99.90
56374;DHT22;58212;47.034;7.376;2022-11-20T10:12:03;9.10;99.90
56374;DHT22;58212;47.034;7.376;2022-11-20T10:14:42;8.70;99.90
56374;DHT22;58212;47.034;7.376;2022-11-20T10:17:27;8.90;99.90
56374;DHT22;58212;47.034;7.376;2022-11-20T10:20:14;8.80;99.90
56374;DHT22;58212;47.034;7.376;2022-11-20T10:22:56;8.90;99.90
56374;DHT22;58212;47.034;7.376;2022-11-20T10:25:33;9.10;99.90
56374;DHT22;58212;47.034;7.376;2022-11-20T10:28:22;9.00;99.90
56374;DHT22;58212;47.034;7.376;2022-11-20T10:30:56;9.10;99.90
56374;DHT22;58212;47.034;7.376;2022-11-20T10:33:27;9.10;99.90
56374;DHT22;58212;47.034;7.376;2022-11-20T10:36:07;9.10;99.90
56374;DHT22;58212;47.034;7.376;2022-11-20T10:38:38;9.00;99.90
56374;DHT22;58212;47.034;7.376;2022-11-20T10:41:07;8.90;99.90
56374;DHT22;58212;47.034;7.376;2022-11-20T10:43:58;9.00;99.90
56374;DHT22;58212;47.034;7.376;2022-11-20T10:46:32;9.10;99.90
56374;DHT22;58212;47.034;7.376;2022-11-20T10:49:09;9.10;99.90
56374;DHT22;58212;47.034;7.376;2022-11-20T10:51:42;9.20;99.90
56374;DHT22;58212;47.034;7.376;2022-11-20T10:54:19;9.20;99.90
56374;DHT22;58212;47.034;7.376;2022-11-20T10:56:50;9.20;99.90
56374;DHT22;58212;47.034;7.376;2022-11-20T11:02:24;9.30;99.90
56374;DHT22;58212;47.034;7.376;2022-11-20T11:04:53;9.30;99.90
56374;DHT22;58212;47.034;7.376;2022-11-20T11:07:23;9.40;99.90
56374;DHT22;58212;47.034;7.376;2022-11-20T11:09:52;9.40;99.90
56374;DHT22;58212;47.034;7.376;2022-11-20T11:12:21;9.30;99.90
56374;DHT22;58212;47.034;7.376;2022-11-20T11:14:49;9.30;99.90
56374;DHT22;58212;47.034;7.376;2022-11-20T11:17:24;9.30;99.90
56374;DHT22;58212;47.034;7.376;2022-11-20T11:20:05;9.20;99.90
56374;DHT22;58212;47.034;7.376;2022-11-20T11:22:34;9.30;99.90
56374;DHT22;58212;47.034;7.376;2022-11-20T11:25:19;9.20;99.90
56374;DHT22;58212;47.034;7.376;2022-11-20T11:27:46;9.10;99.90
56374;DHT22;58212;47.034;7.376;2022-11-20T11:30:18;9.10;99.90
56374;DHT22;58212;47.034;7.376;2022-11-20T11:32:45;9.20;99.90
56374;DHT22;58212;47.034;7.376;2022-11-20T11:35:23;9.40;99.90
56374;DHT22;58212;47.034;7.376;2022-11-20T11:37:51;9.50;99.90
56374;DHT22;58212;47.034;7.376;2022-11-20T11:40:21;9.40;99.90
56374;DHT22;58212;47.034;7.376;2022-11-20T11:42:54;9.40;99.90
56374;DHT22;58212;47.034;7.376;2022-11-20T11:45:23;9.20;99.90
56374;DHT22;58212;47.034;7.376;2022-11-20T11:47:54;9.00;99.90
56374;DHT22;58212;47.034;7.376;2022-11-20T11:50:25;9.10;99.90
56374;DHT22;58212;47.034;7.376;2022-11-20T11:52:59;9.20;99.90
56374;DHT22;58212;47.034;7.376;2022-11-20T11:55:33;9.40;99.90
56374;DHT22;58212;47.034;7.376;2022-11-20T11:58:09;9.40;99.90
56374;DHT22;58212;47.034;7.376;2022-11-20T12:00:41;9.40;99.90
56374;DHT22;58212;47.034;7.376;2022-11-20T12:03:14;9.60;99.90
56374;DHT22;58212;47.034;7.376;2022-11-20T12:05:48;9.60;99.90
56374;DHT22;58212;47.034;7.376;2022-11-20T12:08:21;9.50;99.90
56374;DHT22;58212;47.034;7.376;2022-11-20T12:10:55;9.50;99.90
56374;DHT22;58212;47.034;7.376;2022-11-20T12:13:40;9.50;99.90
56374;DHT22;58212;47.034;7.376;2022-11-20T12:16:12;9.40;99.90
56374;DHT22;58212;47.034;7.376;2022-11-20T12:18:41;9.40;99.90
56374;DHT22;58212;47.034;7.376;2022-11-20T12:21:20;9.40;99.90
56374;DHT22;58212;47.034;7.376;2022-11-20T12:24:06;9.40;99.90
56374;DHT22;58212;47.034;7.376;2022-11-20T12:26:49;9.30;99.90
56374;DHT22;58212;47.034;7.376;2022-11-20T12:29:24;9.40;99.90
56374;DHT22;58212;47.034;7.376;2022-11-20T12:32:06;9.40;99.90
56374;DHT22;58212;47.034;7.376;2022-11-20T12:34:47;9.30;99.90
56374;DHT22;58212;47.034;7.376;2022-11-20T12:37:29;9.30;99.90
56374;DHT22;58212;47.034;7.376;2022-11-20T12:40:02;9.30;99.90
56374;DHT22;58212;47.034;7.376;2022-11-20T12:42:46;9.40;99.90
56374;DHT22;58212;47.034;7.376;2022-11-20T12:46:03;9.40;99.90
56374;DHT22;58212;47.034;7.376;2022-11-20T12:49:12;9.50;99.90
56374;DHT22;58212;47.034;7.376;2022-11-20T12:51:54;9.40;99.90
56374;DHT22;58212;47.034;7.376;2022-11-20T12:54:47;9.50;99.90
56374;DHT22;58212;47.034;7.376;2022-11-20T12:57:26;9.40;99.90
56374;DHT22;58212;47.034;7.376;2022-11-20T13:00:10;9.50;99.90
56374;DHT22;58212;47.034;7.376;2022-11-20T13:05:37;9.20;99.90
56374;DHT22;58212;47.034;7.376;2022-11-20T13:08:15;9.30;99.90
56374;DHT22;58212;47.034;7.376;2022-11-20T13:10:51;9.30;99.90
56374;DHT22;58212;47.034;7.376;2022-11-20T13:13:25;9.20;99.90
56374;DHT22;58212;47.034;7.376;2022-11-20T13:15:57;9.00;99.90
56374;DHT22;58212;47.034;7.376;2022-11-20T13:18:27;8.80;99.90
56374;DHT22;58212;47.034;7.376;2022-11-20T13:20:55;8.80;99.90
56374;DHT22;58212;47.034;7.376;2022-11-20T13:23:26;8.80;99.90
56374;DHT22;58212;47.034;7.376;2022-11-20T13:26:13;8.60;99.90
56374;DHT22;58212;47.034;7.376;2022-11-20T13:28:40;8.70;99.90
56374;DHT22;58212;47.034;7.376;2022-11-20T13:31:10;8.60;99.90
56374;DHT22;58212;47.034;7.376;2022-11-20T13:33:52;8.70;99.90
56374;DHT22;58212;47.034;7.376;2022-11-20T13:36:23;8.70;99.90
56374;DHT22;58212;47.034;7.376;2022-11-20T13:38:51;8.80;99.90
56374;DHT22;58212;47.034;7.376;2022-11-20T13:41:26;8.80;99.90
56374;DHT22;58212;47.034;7.376;2022-11-20T13:44:09;8.60;99.90
56374;DHT22;58212;47.034;7.376;2022-11-20T13:46:41;8.50;99.90
56374;DHT22;58212;47.034;7.376;2022-11-20T13:49:16;8.50;99.90
56374;DHT22;58212;47.034;7.376;2022-11-20T13:51:46;8.50;99.90
56374;DHT22;58212;47.034;7.376;2022-11-20T13:54:45;8.50;99.90
56374;DHT22;58212;47.034;7.376;2022-11-20T14:00:25;8.40;99.90
56374;DHT22;58212;47.034;7.376;2022-11-20T14:03:02;8.30;99.90
56374;DHT22;58212;47.034;7.376;2022-11-20T14:05:38;8.40;99.90
56374;DHT22;58212;47.034;7.376;2022-11-20T14:08:16;8.40;99.90
56374;DHT22;58212;47.034;7.376;2022-11-20T14:10:45;8.20;99.90
56374;DHT22;58212;47.034;7.376;2022-11-20T14:13:18;8.30;99.90
56374;DHT22;58212;47.034;7.376;2022-11-20T14:15:47;8.10;99.90
56374;DHT22;58212;47.034;7.376;2022-11-20T14:18:19;8.10;99.90
56374;DHT22;58212;47.034;7.376;2022-11-20T14:20:47;8.10;99.90
56374;DHT22;58212;47.034;7.376;2022-11-20T14:23:24;8.00;99.90
56374;DHT22;58212;47.034;7.376;2022-11-20T14:25:54;8.00;99.90
56374;DHT22;58212;47.034;7.376;2022-11-20T14:28:26;8.10;99.90
56374;DHT22;58212;47.034;7.376;2022-11-20T14:30:56;8.20;99.90
56374;DHT22;58212;47.034;7.376;2022-11-20T14:33:25;8.30;99.90
56374;DHT22;58212;47.034;7.376;2022-11-20T14:35:54;8.20;99.90
56374;DHT22;58212;47.034;7.376;2022-11-20T14:38:25;8.20;99.90
56374;DHT22;58212;47.034;7.376;2022-11-20T14:40:53;8.00;99.90
56374;DHT22;58212;47.034;7.376;2022-11-20T14:43:23;7.90;99.90
56374;DHT22;58212;47.034;7.376;2022-11-20T14:45:58;8.10;99.90
56374;DHT22;58212;47.034;7.376;2022-11-20T14:48:29;8.10;99.90
56374;DHT22;58212;47.034;7.376;2022-11-20T14:51:00;7.90;99.90
56374;DHT22;58212;47.034;7.376;2022-11-20T14:53:30;7.90;99.90
56374;DHT22;58212;47.034;7.376;2022-11-20T14:55:59;7.70;99.90
56374;DHT22;58212;47.034;7.376;2022-11-20T14:58:28;7.50;99.90
56374;DHT22;58212;47.034;7.376;2022-11-20T15:00:59;7.50;99.90
56374;DHT22;58212;47.034;7.376;2022-11-20T15:03:34;7.40;99.90
56374;DHT22;58212;47.034;7.376;2022-11-20T15:06:02;7.50;99.90
56374;DHT22;58212;47.034;7.376;2022-11-20T15:08:29;7.40;99.90
56374;DHT22;58212;47.034;7.376;2022-11-20T15:10:57;7.40;99.90
56374;DHT22;58212;47.034;7.376;2022-11-20T15:13:26;7.30;99.90
56374;DHT22;58212;47.034;7.376;2022-11-20T15:15:58;7.40;99.90
56374;DHT22;58212;47.034;7.376;2022-11-20T15:18:28;7.40;99.90
56374;DHT22;58212;47.034;7.376;2022-11-20T15:20:58;7.30;99.90
56374;DHT22;58212;47.034;7.376;2022-11-20T15:23:28;7.30;99.90
56374;DHT22;58212;47.034;7.376;2022-11-20T15:25:55;7.30;99.90
56374;DHT22;58212;47.034;7.376;2022-11-20T15:28:29;7.30;99.90
56374;DHT22;58212;47.034;7.376;2022-11-20T15:30:58;7.40;99.90
56374;DHT22;58212;47.034;7.376;2022-11-20T15:33:25;7.30;99.90
56374;DHT22;58212;47.034;7.376;2022-11-20T15:35:52;7.30;99.90
56374;DHT22;58212;47.034;7.376;2022-11-20T15:38:19;7.20;99.90
56374;DHT22;58212;47.034;7.376;2022-11-20T15:40:46;7.20;99.90
56374;DHT22;58212;47.034;7.376;2022-11-20T15:43:14;7.20;99.90
56374;DHT22;58212;47.034;7.376;2022-11-20T15:45:43;7.30;99.90
56374;DHT22;58212;47.034;7.376;2022-11-20T15:48:14;7.30;99.90
56374;DHT22;58212;47.034;7.376;2022-11-20T15:50:48;7.20;99.90
56374;DHT22;58212;47.034;7.376;2022-11-20T15:53:17;7.20;99.90
56374;DHT22;58212;47.034;7.376;2022-11-20T15:55:45;7.10;99.90
56374;DHT22;58212;47.034;7.376;2022-11-20T15:58:12;7.10;99.90
56374;DHT22;58212;47.034;7.376;2022-11-20T16:00:39;7.10;99.90
56374;DHT22;58212;47.034;7.376;2022-11-20T16:03:09;7.20;99.90
56374;DHT22;58212;47.034;7.376;2022-11-20T16:05:38;7.20;99.90
56374;DHT22;58212;47.034;7.376;2022-11-20T16:08:05;7.20;99.90
56374;DHT22;58212;47.034;7.376;2022-11-20T16:10:32;7.00;99.90
56374;DHT22;58212;47.034;7.376;2022-11-20T16:12:59;7.00;99.90
56374;DHT22;58212;47.034;7.376;2022-11-20T16:15:44;6.90;99.90